createdAt,value
2023-03-07T00:00:53.170Z,67.65
2023-03-07T00:03:21.941Z,67.49
2023-03-07T00:05:50.010Z,67.15
2023-03-07T00:08:17.813Z,67.12
2023-03-07T00:10:45.798Z,67.22
2023-03-07T00:13:13.575Z,67.24
2023-03-07T00:15:41.695Z,67.24
2023-03-07T00:18:09.508Z,67.09
2023-03-07T00:20:37.399Z,67.22
2023-03-07T00:23:06.078Z,67.07
2023-03-07T00:25:33.972Z,67.01
2023-03-07T00:28:01.844Z,67.00
2023-03-07T00:30:29.798Z,66.81
2023-03-07T00:32:57.709Z,67.17
2023-03-07T00:35:25.549Z,66.98
2023-03-07T00:37:53.339Z,67.07
2023-03-07T00:40:21.318Z,67.08
2023-03-07T00:42:49.113Z,66.82
2023-03-07T00:45:16.907Z,67.00
2023-03-07T00:47:44.644Z,67.07
2023-03-07T00:50:12.663Z,66.80
2023-03-07T00:52:40.490Z,66.99
2023-03-07T00:55:09.003Z,66.97
2023-03-07T00:57:36.764Z,66.92
2023-03-07T01:00:05.131Z,67.12
2023-03-07T01:02:32.887Z,67.13
2023-03-07T01:05:00.661Z,66.82
2023-03-07T01:07:28.464Z,66.72
2023-03-07T01:09:56.229Z,67.47
2023-03-07T01:12:23.967Z,67.52
2023-03-07T01:14:52.213Z,67.09
2023-03-07T01:17:20.019Z,67.56
2023-03-07T01:19:47.850Z,66.84
2023-03-07T01:22:15.646Z,67.16
2023-03-07T01:24:43.335Z,67.21
2023-03-07T01:27:11.141Z,67.29
2023-03-07T01:29:38.939Z,66.95
2023-03-07T01:32:06.932Z,67.54
2023-03-07T01:34:34.730Z,67.05
2023-03-07T01:37:02.467Z,67.17
2023-03-07T01:39:30.317Z,67.71
2023-03-07T01:41:58.104Z,67.61
2023-03-07T01:44:26.913Z,67.94
2023-03-07T01:46:58.671Z,68.27
2023-03-07T01:49:29.342Z,68.29
2023-03-07T01:52:03.933Z,68.14
2023-03-07T01:54:32.522Z,68.77
2023-03-07T01:57:00.442Z,68.27
2023-03-07T01:59:33.786Z,67.78
2023-03-07T02:02:04.759Z,68.21
2023-03-07T02:04:44.467Z,68.77
2023-03-07T02:07:12.295Z,67.91
2023-03-07T02:09:40.026Z,68.06
2023-03-07T02:12:08.149Z,68.05
2023-03-07T02:14:35.969Z,67.39
2023-03-07T02:17:05.103Z,67.36
2023-03-07T02:19:47.108Z,67.71
2023-03-07T02:22:18.944Z,67.70
2023-03-07T02:25:07.404Z,68.15
2023-03-07T02:27:36.174Z,67.22
2023-03-07T02:30:05.464Z,67.09
2023-03-07T02:32:33.393Z,67.20
2023-03-07T02:35:01.319Z,67.05
2023-03-07T02:37:34.292Z,67.04
2023-03-07T02:40:07.133Z,66.98
2023-03-07T02:42:36.040Z,66.97
2023-03-07T02:45:06.038Z,67.45
2023-03-07T02:47:33.854Z,67.34
2023-03-07T02:50:01.578Z,67.83
2023-03-07T02:52:29.842Z,67.42
2023-03-07T02:54:57.797Z,67.55
2023-03-07T02:57:25.683Z,67.09
2023-03-07T02:59:53.554Z,66.83
2023-03-07T03:02:21.372Z,66.57
2023-03-07T03:04:49.159Z,66.63
2023-03-07T03:07:17.022Z,66.48
2023-03-07T03:09:44.765Z,66.25
2023-03-07T03:12:13.121Z,66.14
2023-03-07T03:14:40.817Z,66.43
2023-03-07T03:17:08.573Z,66.39
2023-03-07T03:19:36.342Z,66.35
2023-03-07T03:22:04.442Z,66.39
2023-03-07T03:24:32.206Z,67.07
2023-03-07T03:27:00.148Z,66.97
2023-03-07T03:29:28.282Z,66.96
2023-03-07T03:31:56.001Z,67.28
2023-03-07T03:34:23.769Z,67.39
2023-03-07T03:36:52.054Z,67.80
2023-03-07T03:39:19.980Z,68.07
2023-03-07T03:41:47.820Z,68.53
2023-03-07T03:44:15.686Z,68.85
2023-03-07T03:46:43.463Z,68.76
2023-03-07T03:49:13.837Z,68.95
2023-03-07T03:51:41.658Z,69.03
2023-03-07T03:54:09.451Z,69.23
2023-03-07T03:56:37.215Z,68.83
2023-03-07T03:59:05.037Z,68.69
2023-03-07T04:01:32.836Z,68.73
2023-03-07T04:04:00.780Z,68.65
2023-03-07T04:06:30.250Z,68.70
2023-03-07T04:08:58.140Z,68.16
2023-03-07T04:11:26.046Z,68.21
2023-03-07T04:13:53.976Z,68.16
2023-03-07T04:16:23.632Z,67.94
2023-03-07T04:18:52.238Z,67.67
2023-03-07T04:21:20.196Z,67.85
2023-03-07T04:23:50.655Z,67.70
2023-03-07T04:26:18.392Z,67.69
2023-03-07T04:28:46.210Z,67.86
2023-03-07T04:31:18.190Z,67.65
2023-03-07T04:33:46.060Z,67.79
2023-03-07T04:36:14.340Z,67.49
2023-03-07T04:38:43.379Z,67.51
2023-03-07T04:41:15.386Z,67.48
2023-03-07T04:43:43.124Z,67.39
2023-03-07T04:46:11.514Z,67.49
2023-03-07T04:48:39.268Z,67.10
2023-03-07T04:51:07.314Z,67.05
2023-03-07T04:53:35.013Z,67.09
2023-03-07T04:56:03.819Z,66.85
2023-03-07T04:58:31.895Z,66.64
2023-03-07T05:01:00.271Z,66.83
2023-03-07T05:03:29.789Z,66.47
2023-03-07T05:05:57.542Z,66.50
2023-03-07T05:08:25.840Z,66.37
2023-03-07T05:10:54.002Z,66.24
2023-03-07T05:13:21.886Z,66.43
2023-03-07T05:15:53.749Z,66.59
2023-03-07T05:18:21.518Z,66.70
2023-03-07T05:20:49.377Z,66.55
2023-03-07T05:23:17.498Z,66.67
2023-03-07T05:25:45.287Z,66.67
2023-03-07T05:28:13.182Z,66.26
2023-03-07T05:30:40.913Z,66.70
2023-03-07T05:33:08.693Z,66.50
2023-03-07T05:35:36.486Z,66.57
2023-03-07T05:38:04.288Z,66.53
2023-03-07T05:40:32.137Z,66.25
2023-03-07T05:42:59.942Z,66.90
2023-03-07T05:45:27.872Z,66.86
2023-03-07T05:47:55.681Z,66.70
2023-03-07T05:50:23.634Z,66.57
2023-03-07T05:52:51.449Z,66.52
2023-03-07T05:55:19.613Z,66.83
2023-03-07T05:57:47.446Z,67.40
2023-03-07T06:00:17.114Z,66.84
2023-03-07T06:02:44.984Z,67.39
2023-03-07T06:05:12.782Z,67.70
2023-03-07T06:07:40.568Z,68.37
2023-03-07T06:10:08.834Z,67.52
2023-03-07T06:12:36.694Z,67.45
2023-03-07T06:15:04.817Z,68.44
2023-03-07T06:17:32.578Z,67.30
2023-03-07T06:20:00.382Z,67.12
2023-03-07T06:22:28.951Z,66.68
2023-03-07T06:24:56.701Z,66.78
2023-03-07T06:27:24.449Z,67.93
2023-03-07T06:29:52.263Z,67.83
2023-03-07T06:32:20.071Z,68.04
2023-03-07T06:34:48.048Z,68.17
2023-03-07T06:37:15.850Z,67.94
2023-03-07T06:39:43.674Z,67.67
2023-03-07T06:42:11.427Z,67.78
2023-03-07T06:44:39.333Z,68.21
2023-03-07T06:47:07.164Z,67.36
2023-03-07T06:49:34.955Z,67.22
2023-03-07T06:52:02.751Z,67.45
2023-03-07T06:54:30.556Z,66.56
2023-03-07T06:56:58.289Z,66.30
2023-03-07T06:59:25.983Z,66.24
2023-03-07T07:01:53.858Z,66.00
2023-03-07T07:04:21.744Z,66.33
2023-03-07T07:06:49.530Z,65.70
2023-03-07T07:09:17.371Z,65.33
2023-03-07T07:11:45.131Z,65.58
2023-03-07T07:14:12.936Z,65.69
2023-03-07T07:16:40.777Z,65.34
2023-03-07T07:19:08.698Z,65.48
2023-03-07T07:21:36.590Z,64.97
2023-03-07T07:24:04.586Z,64.87
2023-03-07T07:26:32.545Z,65.01
2023-03-07T07:29:00.404Z,64.58
2023-03-07T07:31:28.246Z,64.49
2023-03-07T07:33:56.052Z,65.46
2023-03-07T07:36:24.944Z,66.36
2023-03-07T07:38:52.890Z,64.80
2023-03-07T07:41:20.750Z,64.39
2023-03-07T07:43:49.570Z,62.78
2023-03-07T07:46:17.541Z,64.00
2023-03-07T07:48:47.277Z,64.49
2023-03-07T07:51:15.142Z,63.43
2023-03-07T07:53:43.012Z,62.45
2023-03-07T07:56:10.872Z,63.17
2023-03-07T07:58:38.672Z,63.20
2023-03-07T08:01:15.639Z,62.85
2023-03-07T08:03:43.471Z,63.17
2023-03-07T08:06:11.254Z,62.00
2023-03-07T08:08:39.176Z,62.25
2023-03-07T08:11:07.101Z,61.53
2023-03-07T08:13:34.969Z,60.77
2023-03-07T08:16:12.827Z,61.04
2023-03-07T08:18:40.635Z,61.40
2023-03-07T08:21:08.854Z,61.94
2023-03-07T08:23:37.439Z,59.97
2023-03-07T08:26:09.915Z,59.25
2023-03-07T08:28:38.469Z,60.38
2023-03-07T08:31:14.572Z,59.94
2023-03-07T08:33:42.437Z,59.77
2023-03-07T08:36:10.381Z,57.62
2023-03-07T08:38:38.125Z,58.72
2023-03-07T08:41:07.290Z,57.74
2023-03-07T08:43:35.768Z,59.21
2023-03-07T08:46:03.761Z,57.85
2023-03-07T08:48:31.512Z,56.10
2023-03-07T08:50:59.369Z,56.68
2023-03-07T08:53:27.529Z,54.30
2023-03-07T08:55:55.623Z,56.17
2023-03-07T08:58:23.790Z,56.42
2023-03-07T09:00:51.658Z,53.95
2023-03-07T09:03:19.608Z,55.12
2023-03-07T09:05:47.659Z,54.62
2023-03-07T09:08:15.648Z,54.85
2023-03-07T09:10:43.499Z,55.37
2023-03-07T09:13:11.755Z,54.92
2023-03-07T09:15:41.089Z,54.18
2023-03-07T09:18:09.619Z,55.28
2023-03-07T09:20:39.074Z,55.47
2023-03-07T09:23:07.526Z,55.25
2023-03-07T09:25:35.319Z,54.04
2023-03-07T09:28:03.124Z,54.16
2023-03-07T09:30:30.949Z,53.98
2023-03-07T09:32:58.768Z,53.69
2023-03-07T09:35:26.991Z,53.99
2023-03-07T09:37:54.752Z,52.58
2023-03-07T09:40:24.667Z,53.41
2023-03-07T09:43:07.223Z,52.99
2023-03-07T09:45:48.387Z,51.26
2023-03-07T09:48:37.730Z,51.38
2023-03-07T09:51:18.220Z,50.32
2023-03-07T09:53:56.664Z,51.49
2023-03-07T09:56:42.735Z,51.56
2023-03-07T09:59:50.655Z,50.19
2023-03-07T10:02:27.268Z,49.73
2023-03-07T10:05:05.494Z,49.14
2023-03-07T10:07:33.712Z,46.69
2023-03-07T10:10:03.204Z,55.13
2023-03-07T10:13:06.269Z,46.18
2023-03-07T10:15:43.582Z,48.80
2023-03-07T10:18:39.071Z,47.43
2023-03-07T10:21:26.907Z,45.20
2023-03-07T10:24:25.998Z,46.77
2023-03-07T10:27:09.672Z,45.42
2023-03-07T10:29:43.789Z,45.01
2023-03-07T10:32:22.828Z,45.39
2023-03-07T10:35:17.400Z,45.65
2023-03-07T10:37:53.289Z,44.78
2023-03-07T10:40:22.496Z,41.78
2023-03-07T10:42:51.095Z,44.36
2023-03-07T10:45:25.404Z,44.93
2023-03-07T10:47:53.299Z,44.06
2023-03-07T10:50:47.373Z,41.15
2023-03-07T10:53:32.736Z,43.15
2023-03-07T10:56:14.840Z,42.82
2023-03-07T10:59:03.985Z,42.61
2023-03-07T11:01:33.301Z,40.99
2023-03-07T11:04:23.171Z,41.55
2023-03-07T11:07:01.897Z,41.21
2023-03-07T11:09:33.908Z,42.69
2023-03-07T11:12:13.453Z,43.54
2023-03-07T11:14:55.132Z,41.58
2023-03-07T11:17:40.694Z,44.66
2023-03-07T11:20:50.481Z,41.68
2023-03-07T11:23:19.486Z,39.05
2023-03-07T11:25:47.556Z,40.92
2023-03-07T11:28:29.448Z,40.97
2023-03-07T11:31:06.308Z,40.36
2023-03-07T11:33:53.043Z,39.45
2023-03-07T11:36:33.675Z,39.13
2023-03-07T11:39:05.265Z,39.17
2023-03-07T11:41:41.486Z,36.88
2023-03-07T11:44:27.348Z,37.74
2023-03-07T11:47:14.001Z,37.05
2023-03-07T11:50:02.339Z,36.42
2023-03-07T11:52:36.446Z,38.91
2023-03-07T11:55:30.843Z,37.72
2023-03-07T11:58:20.534Z,37.94
2023-03-07T12:01:00.546Z,36.84
2023-03-07T12:03:31.816Z,38.07
2023-03-07T12:06:29.996Z,38.90
2023-03-07T12:09:01.037Z,36.20
2023-03-07T12:12:08.458Z,36.56
2023-03-07T12:14:54.805Z,35.87
2023-03-07T12:17:37.964Z,37.70
2023-03-07T12:20:08.968Z,37.46
2023-03-07T12:23:00.883Z,37.98
2023-03-07T12:25:37.009Z,36.96
2023-03-07T12:28:23.056Z,38.17
2023-03-07T12:30:54.368Z,37.09
2023-03-07T12:33:29.474Z,36.53
2023-03-07T12:36:06.126Z,36.91
2023-03-07T12:38:54.600Z,36.55
2023-03-07T12:41:25.108Z,36.19
2023-03-07T12:43:58.372Z,36.50
2023-03-07T12:46:42.167Z,36.11
2023-03-07T12:49:37.889Z,35.14
2023-03-07T12:52:16.601Z,36.18
2023-03-07T12:55:03.289Z,35.80
2023-03-07T12:57:41.273Z,35.75
2023-03-07T13:00:10.607Z,35.85
2023-03-07T13:02:59.518Z,36.14
2023-03-07T13:05:27.494Z,35.64
2023-03-07T13:07:55.732Z,36.28
2023-03-07T13:10:24.796Z,36.16
2023-03-07T13:12:53.448Z,35.78
2023-03-07T13:15:22.334Z,36.71
2023-03-07T13:17:50.304Z,36.90
2023-03-07T13:20:20.773Z,37.71
2023-03-07T13:22:48.831Z,37.98
2023-03-07T13:25:50.461Z,38.35
2023-03-07T13:28:35.120Z,37.19
2023-03-07T13:31:18.837Z,37.33
2023-03-07T13:33:47.007Z,37.31
2023-03-07T13:36:48.298Z,36.90
2023-03-07T13:39:38.495Z,36.15
2023-03-07T13:42:09.472Z,39.70
2023-03-07T13:44:41.970Z,36.79
2023-03-07T13:47:42.016Z,37.77
2023-03-07T13:50:37.850Z,37.97
2023-03-07T13:53:15.932Z,37.81
2023-03-07T13:55:47.950Z,37.75
2023-03-07T13:58:38.864Z,38.14
2023-03-07T14:01:14.175Z,38.45
2023-03-07T14:03:46.240Z,37.88
2023-03-07T14:06:19.802Z,37.77
2023-03-07T14:08:47.956Z,40.02
2023-03-07T14:11:47.006Z,37.20
2023-03-07T14:50:20.135Z,40.60
2023-03-07T14:52:48.142Z,41.71
2023-03-07T14:55:19.300Z,42.44
2023-03-07T14:57:50.687Z,43.06
2023-03-07T15:00:21.586Z,42.39
2023-03-07T15:02:59.450Z,42.91
2023-03-07T15:05:32.314Z,43.59
2023-03-07T15:08:00.224Z,43.83
2023-03-07T15:10:43.391Z,44.57
2023-03-07T15:13:48.250Z,43.87
2023-03-07T15:16:36.735Z,44.64
2023-03-07T15:19:16.707Z,45.48
2023-03-07T15:21:46.591Z,45.51
2023-03-07T15:24:19.657Z,45.46
2023-03-07T15:26:52.630Z,45.37
2023-03-07T15:29:24.802Z,45.87
2023-03-07T15:32:00.270Z,45.98
2023-03-07T15:34:36.107Z,46.31
2023-03-07T15:37:35.139Z,46.33
2023-03-07T15:40:03.003Z,46.68
2023-03-07T15:42:31.139Z,47.20
2023-03-07T15:45:03.362Z,47.19
2023-03-07T15:47:32.382Z,47.15
2023-03-07T15:50:01.916Z,47.35
2023-03-07T15:52:37.374Z,47.70
2023-03-07T15:55:26.797Z,47.55
2023-03-07T15:58:00.125Z,47.73
2023-03-07T16:00:28.157Z,47.91
2023-03-07T16:02:58.567Z,47.30
2023-03-07T16:05:26.465Z,47.20
2023-03-07T16:07:59.437Z,47.52
2023-03-07T16:10:29.648Z,47.17
2023-03-07T16:12:57.668Z,47.44
2023-03-07T16:15:25.626Z,48.36
2023-03-07T16:17:56.276Z,48.19
2023-03-07T16:20:28.426Z,48.15
2023-03-07T16:22:56.415Z,48.95
2023-03-07T16:25:24.741Z,48.94
2023-03-07T16:27:58.140Z,48.87
2023-03-07T16:30:27.508Z,48.98
2023-03-07T16:32:55.789Z,49.58
2023-03-07T16:35:27.445Z,49.52
2023-03-07T16:37:55.627Z,49.08
2023-03-07T16:40:24.175Z,49.75
2023-03-07T16:42:52.095Z,49.08
2023-03-07T16:45:27.556Z,49.50
2023-03-07T16:47:57.809Z,49.21
2023-03-07T16:50:27.595Z,49.34
2023-03-07T16:52:55.452Z,49.65
2023-03-07T16:55:24.534Z,49.99
2023-03-07T16:57:57.490Z,49.93
2023-03-07T17:00:26.166Z,50.16
2023-03-07T17:02:54.926Z,50.37
2023-03-07T17:05:27.465Z,50.42
2023-03-07T17:07:56.084Z,50.73
2023-03-07T17:10:24.506Z,50.68
2023-03-07T17:12:52.403Z,50.78
2023-03-07T17:15:23.101Z,51.42
2023-03-07T17:17:51.098Z,51.64
2023-03-07T17:20:21.523Z,51.40
2023-03-07T17:22:49.989Z,51.20
2023-03-07T17:25:18.041Z,51.58
2023-03-07T17:28:00.987Z,51.60
2023-03-07T17:30:30.295Z,52.09
2023-03-07T17:32:58.534Z,53.10
2023-03-07T17:35:26.667Z,52.63
2023-03-07T17:37:54.871Z,52.59
2023-03-07T17:40:23.149Z,52.56
2023-03-07T17:42:52.215Z,52.89
2023-03-07T17:45:20.298Z,52.77
2023-03-07T17:47:55.252Z,52.75
2023-03-07T17:50:26.623Z,53.58
2023-03-07T17:52:55.181Z,66.32
2023-03-07T17:55:25.614Z,54.80
2023-03-07T17:57:53.454Z,54.58
2023-03-07T18:00:22.377Z,53.92
2023-03-07T18:02:50.474Z,54.40
2023-03-07T18:05:18.990Z,54.38
2023-03-07T18:07:46.936Z,54.41
2023-03-07T18:10:14.906Z,54.73
2023-03-07T18:12:42.756Z,54.50
2023-03-07T18:15:15.098Z,54.67
2023-03-07T18:17:48.283Z,55.15
2023-03-07T18:20:20.612Z,54.15
2023-03-07T18:22:48.856Z,54.22
2023-03-07T18:25:17.022Z,54.73
2023-03-07T18:27:45.238Z,54.76
2023-03-07T18:30:13.925Z,54.05
2023-03-07T18:32:41.896Z,54.10
2023-03-07T18:35:10.198Z,54.00
2023-03-07T18:37:38.213Z,54.07
2023-03-07T18:40:06.621Z,54.73
2023-03-07T18:42:35.028Z,54.65
2023-03-07T18:45:03.396Z,54.82
2023-03-07T18:47:31.229Z,54.81
2023-03-07T18:49:59.188Z,54.38
2023-03-07T18:52:27.029Z,54.70
2023-03-07T18:54:55.018Z,54.33
2023-03-07T18:57:22.805Z,54.25
2023-03-07T18:59:52.300Z,54.22
2023-03-07T19:02:20.183Z,54.77
2023-03-07T19:04:48.050Z,54.71
2023-03-07T19:07:15.981Z,54.30
2023-03-07T19:09:45.292Z,54.01
2023-03-07T19:12:13.941Z,54.23
2023-03-07T19:14:41.896Z,54.19
2023-03-07T19:17:09.731Z,54.56
2023-03-07T19:19:37.704Z,54.51
2023-03-07T19:22:05.476Z,54.86
2023-03-07T19:24:33.849Z,54.65
2023-03-07T19:27:01.675Z,54.80
2023-03-07T19:29:29.644Z,55.38
2023-03-07T19:31:57.672Z,54.91
2023-03-07T19:34:25.525Z,54.93
2023-03-07T19:36:53.495Z,55.62
2023-03-07T19:39:21.801Z,55.46
2023-03-07T19:41:49.590Z,55.58
2023-03-07T19:44:17.770Z,55.65
2023-03-07T19:46:48.426Z,55.46
2023-03-07T19:49:17.520Z,55.60
2023-03-07T19:51:45.612Z,55.64
2023-03-07T19:54:14.770Z,56.51
2023-03-07T19:56:43.821Z,55.83
2023-03-07T19:59:12.198Z,55.99
2023-03-07T20:01:40.120Z,55.80
2023-03-07T20:04:08.953Z,56.09
2023-03-07T20:06:36.932Z,56.78
2023-03-07T20:09:05.120Z,55.85
2023-03-07T20:11:34.311Z,56.10
2023-03-07T20:14:04.625Z,56.23
2023-03-07T20:16:33.689Z,55.76
2023-03-07T20:19:03.526Z,56.15
2023-03-07T20:21:31.749Z,56.35
2023-03-07T20:24:00.702Z,56.70
2023-03-07T20:26:33.731Z,56.37
2023-03-07T20:29:02.469Z,56.20
2023-03-07T20:31:30.621Z,56.21
2023-03-07T20:34:01.803Z,56.58
2023-03-07T20:36:31.320Z,56.80
2023-03-07T20:39:00.670Z,56.83
2023-03-07T20:41:30.343Z,57.04
2023-03-07T20:44:02.787Z,56.84
2023-03-07T20:46:31.555Z,56.99
2023-03-07T20:49:07.608Z,56.96
2023-03-07T20:51:36.590Z,57.83
2023-03-07T20:54:15.104Z,57.38
2023-03-07T20:56:43.603Z,57.44
2023-03-07T20:59:19.279Z,57.24
2023-03-07T21:01:47.391Z,57.49
2023-03-07T21:04:18.825Z,57.90
2023-03-07T21:06:47.015Z,57.46
2023-03-07T21:09:15.966Z,57.69
2023-03-07T21:11:46.286Z,57.56
2023-03-07T21:14:15.680Z,57.95
2023-03-07T21:16:45.292Z,57.91
2023-03-07T21:19:13.637Z,57.63
2023-03-07T21:21:42.180Z,57.91
2023-03-07T21:24:10.309Z,57.88
2023-03-07T21:26:38.553Z,58.17
2023-03-07T21:29:06.710Z,57.81
2023-03-07T21:31:36.780Z,57.75
2023-03-07T21:34:06.552Z,58.28
2023-03-07T21:36:34.710Z,57.90
2023-03-07T21:39:03.186Z,57.91
2023-03-07T21:41:31.175Z,57.79
2023-03-07T21:43:59.389Z,58.61
2023-03-07T21:46:27.372Z,59.21
2023-03-07T21:48:56.047Z,57.93
2023-03-07T21:51:24.340Z,57.92
2023-03-07T21:53:52.327Z,57.62
2023-03-07T21:56:21.655Z,57.62
2023-03-07T21:58:50.870Z,57.79
2023-03-07T22:01:21.322Z,57.95
2023-03-07T22:03:50.044Z,57.59
2023-03-07T22:06:18.300Z,58.08
2023-03-07T22:08:46.256Z,58.14
2023-03-07T22:11:14.321Z,59.57
2023-03-07T22:13:42.606Z,58.44
2023-03-07T22:16:15.501Z,58.44
2023-03-07T22:18:43.537Z,59.48
2023-03-07T22:21:14.798Z,58.35
2023-03-07T22:23:43.049Z,58.05
2023-03-07T22:26:11.929Z,58.43
2023-03-07T22:28:41.663Z,58.98
2023-03-07T22:31:11.337Z,58.82
2023-03-07T22:33:39.480Z,59.37
2023-03-07T22:36:08.198Z,59.30
2023-03-07T22:38:36.395Z,59.64
2023-03-07T22:41:09.212Z,59.97
2023-03-07T22:43:37.236Z,60.15
2023-03-07T22:46:05.667Z,60.15
2023-03-07T22:48:34.649Z,59.62
2023-03-07T22:51:02.825Z,59.47
2023-03-07T22:53:32.206Z,61.14
2023-03-07T22:56:00.737Z,60.21
2023-03-07T22:58:29.392Z,60.27
2023-03-07T23:00:57.267Z,60.40
2023-03-07T23:03:25.179Z,60.67
2023-03-07T23:05:53.132Z,60.33
2023-03-07T23:08:21.885Z,60.96
2023-03-07T23:10:49.759Z,60.82
2023-03-07T23:13:17.604Z,60.74
2023-03-07T23:15:45.522Z,61.02
2023-03-07T23:18:13.410Z,60.63
2023-03-07T23:20:41.416Z,60.75
2023-03-07T23:23:12.176Z,60.95
2023-03-07T23:25:43.337Z,60.84
2023-03-07T23:28:11.499Z,60.92
2023-03-07T23:30:41.139Z,61.26
2023-03-07T23:33:09.142Z,60.39
2023-03-07T23:35:37.231Z,60.75
2023-03-07T23:38:05.469Z,60.80
2023-03-07T23:40:33.944Z,60.63
2023-03-07T23:43:03.005Z,60.52
2023-03-07T23:45:31.118Z,60.35
2023-03-07T23:47:59.011Z,60.24
2023-03-07T23:50:27.181Z,60.70
2023-03-07T23:52:55.084Z,60.62
2023-03-07T23:55:23.222Z,60.76
2023-03-07T23:57:51.322Z,60.91
